createdAt,value
2019-02-08T00:00:56.471Z,51.97
2019-02-08T00:03:27.527Z,52.83
2019-02-08T00:05:56.281Z,57.30
2019-02-08T00:08:29.223Z,56.50
2019-02-08T00:10:57.252Z,53.37
2019-02-08T00:13:40.023Z,56.97
2019-02-08T00:16:08.966Z,51.80
2019-02-08T00:18:45.318Z,52.97
2019-02-08T00:21:13.591Z,57.60
2019-02-08T00:23:44.570Z,54.07
2019-02-08T00:26:12.796Z,55.03
2019-02-08T00:28:42.360Z,55.63
2019-02-08T00:31:10.524Z,51.07
2019-02-08T00:33:38.668Z,57.23
2019-02-08T00:36:06.499Z,58.47
2019-02-08T00:38:34.454Z,54.70
2019-02-08T00:41:02.386Z,59.70
2019-02-08T00:43:30.878Z,60.33
2019-02-08T00:45:58.881Z,53.87
2019-02-08T00:48:26.866Z,56.47
2019-02-08T00:50:55.265Z,55.47
2019-02-08T00:53:23.388Z,56.27
2019-02-08T00:55:51.456Z,53.23
2019-02-08T00:58:19.875Z,52.47
2019-02-08T01:00:47.786Z,52.50
2019-02-08T01:03:15.896Z,53.03
2019-02-08T01:05:43.741Z,56.77
2019-02-08T01:08:11.848Z,53.97
2019-02-08T01:10:40.511Z,54.80
2019-02-08T01:13:08.880Z,55.30
2019-02-08T01:15:39.515Z,57.20
2019-02-08T01:18:09.332Z,57.73
2019-02-08T01:20:37.302Z,52.17
2019-02-08T01:23:05.369Z,57.17
2019-02-08T01:25:33.650Z,56.43
2019-02-08T01:28:01.772Z,54.93
2019-02-08T01:30:30.017Z,54.23
2019-02-08T01:32:58.133Z,52.03
2019-02-08T01:35:27.776Z,53.80
2019-02-08T01:37:58.089Z,53.40
2019-02-08T01:40:30.932Z,52.20
2019-02-08T01:43:00.314Z,57.80
2019-02-08T01:45:29.515Z,54.43
2019-02-08T01:47:57.404Z,52.40
2019-02-08T01:50:26.470Z,56.00
2019-02-08T01:52:54.762Z,52.97
2019-02-08T01:55:22.844Z,52.53
2019-02-08T01:57:51.502Z,57.37
2019-02-08T02:00:24.695Z,55.40
2019-02-08T02:02:53.271Z,53.53
2019-02-08T02:05:21.258Z,59.13
2019-02-08T02:07:49.133Z,56.77
2019-02-08T02:10:25.379Z,51.40
2019-02-08T02:12:53.502Z,58.50
2019-02-08T02:15:21.723Z,58.70
2019-02-08T02:20:29.954Z,53.93
2019-02-08T02:22:57.898Z,57.87
2019-02-08T02:25:26.250Z,54.77
2019-02-08T02:27:57.009Z,57.27
2019-02-08T02:30:31.217Z,59.10
2019-02-08T02:33:02.015Z,56.80
2019-02-08T02:35:34.639Z,58.03
2019-02-08T02:38:16.842Z,58.77
2019-02-08T02:40:45.372Z,55.33
2019-02-08T02:43:43.688Z,55.03
2019-02-08T02:46:10.787Z,56.80
2019-02-08T02:48:48.273Z,54.27
2019-02-08T02:51:59.740Z,58.10
2019-02-08T02:54:34.854Z,58.73
2019-02-08T02:57:07.354Z,59.03
2019-02-08T02:59:35.630Z,58.00
2019-02-08T03:02:04.039Z,54.27
2019-02-08T03:04:32.488Z,56.60
2019-02-08T03:07:00.781Z,60.10
2019-02-08T03:09:28.929Z,63.60
2019-02-08T03:11:57.675Z,60.00
2019-02-08T03:14:25.957Z,54.93
2019-02-08T03:16:54.256Z,60.17
2019-02-08T03:19:24.768Z,60.90
2019-02-08T03:21:52.813Z,61.23
2019-02-08T03:24:20.961Z,56.00
2019-02-08T03:26:49.344Z,54.90
2019-02-08T03:29:20.945Z,53.30
2019-02-08T03:31:49.105Z,55.17
2019-02-08T03:34:20.225Z,60.23
2019-02-08T03:36:48.449Z,57.00
2019-02-08T03:39:16.893Z,57.87
2019-02-08T03:41:45.418Z,55.93
2019-02-08T03:44:21.163Z,59.77
2019-02-08T03:47:09.140Z,57.93
2019-02-08T03:49:43.102Z,58.57
2019-02-08T03:52:13.943Z,58.90
2019-02-08T03:54:59.953Z,60.90
2019-02-08T03:57:46.455Z,55.83
2019-02-08T04:00:38.814Z,56.00
2019-02-08T04:03:36.329Z,56.47
2019-02-08T04:06:04.396Z,54.97
2019-02-08T04:08:32.375Z,58.30
2019-02-08T04:11:02.092Z,61.87
2019-02-08T04:13:30.740Z,60.13
2019-02-08T04:15:59.553Z,59.77
2019-02-08T04:18:31.082Z,59.50
2019-02-08T04:20:59.112Z,62.60
2019-02-08T04:23:30.400Z,61.83
2019-02-08T04:25:58.588Z,65.43
2019-02-08T04:28:28.138Z,63.50
2019-02-08T04:30:56.273Z,63.57
2019-02-08T04:33:24.405Z,69.20
2019-02-08T04:35:52.642Z,63.93
2019-02-08T04:38:21.426Z,73.07
2019-02-08T04:40:49.371Z,67.37
2019-02-08T04:43:17.563Z,68.67
2019-02-08T04:45:45.968Z,74.33
2019-02-08T04:48:14.090Z,68.17
2019-02-08T04:50:42.253Z,69.33
2019-02-08T04:53:16.463Z,68.83
2019-02-08T04:55:44.628Z,68.77
2019-02-08T04:58:17.029Z,66.03
2019-02-08T05:00:44.942Z,69.80
2019-02-08T05:03:16.244Z,70.27
2019-02-08T05:05:57.630Z,69.83
2019-02-08T05:08:25.798Z,67.63
2019-02-08T05:10:53.776Z,66.70
2019-02-08T05:13:52.549Z,67.33
2019-02-08T05:16:35.790Z,64.73
2019-02-08T05:19:16.389Z,60.20
2019-02-08T05:21:51.263Z,62.23
2019-02-08T05:25:16.500Z,64.33
2019-02-08T05:28:07.699Z,59.50
2019-02-08T05:30:41.533Z,54.73
2019-02-08T05:33:09.743Z,62.30
2019-02-08T05:35:43.309Z,59.37
2019-02-08T05:38:19.981Z,63.93
2019-02-08T05:40:48.147Z,68.80
2019-02-08T05:43:50.120Z,65.57
2019-02-08T05:46:40.809Z,54.73
2019-02-08T05:49:11.548Z,63.70
2019-02-08T05:51:39.529Z,63.27
2019-02-08T05:54:07.669Z,62.33
2019-02-08T05:56:35.809Z,61.37
2019-02-08T05:59:03.622Z,64.03
2019-02-08T06:01:31.323Z,63.80
2019-02-08T06:03:58.979Z,63.50
2019-02-08T06:06:26.582Z,63.83
2019-02-08T06:08:54.375Z,65.33
2019-02-08T06:11:22.028Z,63.17
2019-02-08T06:13:49.544Z,67.03
2019-02-08T06:16:17.119Z,65.90
2019-02-08T06:18:45.879Z,68.00
2019-02-08T06:21:13.477Z,65.47
2019-02-08T06:23:41.033Z,68.10
2019-02-08T06:26:08.676Z,63.77
2019-02-08T06:28:36.240Z,72.03
2019-02-08T06:31:04.316Z,72.10
2019-02-08T06:33:31.946Z,72.90
2019-02-08T06:35:59.468Z,70.10
2019-02-08T06:38:27.106Z,74.93
2019-02-08T06:40:54.678Z,69.73
2019-02-08T06:43:22.294Z,66.10
2019-02-08T06:45:49.924Z,66.23
2019-02-08T06:48:17.550Z,66.90
2019-02-08T06:50:45.375Z,69.00
2019-02-08T06:53:12.955Z,69.90
2019-02-08T06:55:40.498Z,69.80
2019-02-08T06:58:38.902Z,65.27
2019-02-08T07:01:32.728Z,68.10
2019-02-08T07:04:22.337Z,64.90
2019-02-08T07:07:15.200Z,69.07
2019-02-08T07:10:00.560Z,59.87
2019-02-08T07:12:46.134Z,67.67
2019-02-08T07:15:24.724Z,63.20
2019-02-08T07:18:20.310Z,61.60
2019-02-08T07:21:01.168Z,63.10
2019-02-08T07:23:46.624Z,58.87
2019-02-08T07:26:45.636Z,60.27
2019-02-08T07:29:32.737Z,58.57
2019-02-08T07:32:22.404Z,60.20
2019-02-08T07:35:12.152Z,58.07
2019-02-08T07:38:08.117Z,60.03
2019-02-08T07:40:57.020Z,58.67
2019-02-08T07:43:34.581Z,58.03
2019-02-08T07:46:21.137Z,57.37
2019-02-08T07:48:59.532Z,59.60
2019-02-08T07:51:52.923Z,56.17
2019-02-08T07:54:45.841Z,58.87
2019-02-08T07:57:38.843Z,58.37
2019-02-08T08:00:27.492Z,59.50
2019-02-08T08:03:14.620Z,58.73
2019-02-08T08:06:10.286Z,58.80
2019-02-08T08:09:12.421Z,56.83
2019-02-08T08:11:45.413Z,55.47
2019-02-08T08:14:32.654Z,56.87
2019-02-08T08:17:14.472Z,55.77
2019-02-08T08:20:16.593Z,59.17
2019-02-08T08:23:12.698Z,55.33
2019-02-08T08:25:55.307Z,50.03
2019-02-08T08:28:42.612Z,57.47
2019-02-08T08:31:22.732Z,53.77
2019-02-08T08:34:32.577Z,56.50
2019-02-08T08:37:47.660Z,50.80
2019-02-08T08:41:18.090Z,52.53
2019-02-08T08:44:27.654Z,52.23
2019-02-08T08:47:50.819Z,53.07
2019-02-08T08:50:45.834Z,52.57
2019-02-08T08:53:30.686Z,52.07
2019-02-08T08:56:27.631Z,52.10
2019-02-08T08:59:20.673Z,53.63
2019-02-08T09:02:27.423Z,52.43
2019-02-08T09:05:31.438Z,53.87
2019-02-08T09:08:40.709Z,52.23
2019-02-08T09:11:44.632Z,59.47
2019-02-08T09:14:59.649Z,53.73
2019-02-08T09:17:49.047Z,53.73
2019-02-08T09:21:01.392Z,49.30
2019-02-08T09:24:21.568Z,53.63
2019-02-08T09:27:20.610Z,52.60
2019-02-08T09:30:27.525Z,54.50
2019-02-08T09:33:54.979Z,56.30
2019-02-08T09:36:59.861Z,52.03
2019-02-08T09:40:09.156Z,52.73
2019-02-08T09:43:29.188Z,50.20
2019-02-08T09:46:36.640Z,53.60
2019-02-08T09:49:33.591Z,54.10
2019-02-08T09:52:41.113Z,49.83
2019-02-08T09:56:01.814Z,53.73
2019-02-08T09:59:28.725Z,49.27
2019-02-08T10:02:24.592Z,48.83
2019-02-08T10:05:32.383Z,51.43
2019-02-08T10:08:39.727Z,49.90
2019-02-08T10:11:44.944Z,47.37
2019-02-08T10:14:46.985Z,51.10
2019-02-08T10:17:41.946Z,48.63
2019-02-08T10:20:46.460Z,47.17
2019-02-08T10:24:06.997Z,41.33
2019-02-08T10:27:25.127Z,44.53
2019-02-08T10:30:43.542Z,45.43
2019-02-08T10:33:57.602Z,42.13
2019-02-08T10:37:02.555Z,46.47
2019-02-08T10:40:15.093Z,47.87
2019-02-08T10:43:22.586Z,50.30
2019-02-08T10:46:24.756Z,51.43
2019-02-08T10:49:42.697Z,64.30
2019-02-08T10:52:42.526Z,42.50
2019-02-08T10:55:25.820Z,44.07
2019-02-08T10:58:51.472Z,46.70
2019-02-08T11:01:43.001Z,46.53
2019-02-08T11:04:53.554Z,50.40
2019-02-08T11:08:16.319Z,45.43
2019-02-08T11:11:24.023Z,46.10
2019-02-08T11:14:34.469Z,45.83
2019-02-08T11:17:29.485Z,46.63
2019-02-08T11:19:57.179Z,45.60
2019-02-08T11:22:24.965Z,46.03
2019-02-08T11:24:52.662Z,49.67
2019-02-08T11:27:20.328Z,50.40
2019-02-08T11:29:47.977Z,45.17
2019-02-08T11:32:15.558Z,49.07
2019-02-08T11:34:43.296Z,50.10
2019-02-08T11:37:10.914Z,46.03
2019-02-08T11:39:38.609Z,49.37
2019-02-08T11:42:06.282Z,48.87
2019-02-08T11:44:34.076Z,46.17
2019-02-08T11:47:01.775Z,48.70
2019-02-08T11:49:29.541Z,46.93
2019-02-08T11:51:57.262Z,50.23
2019-02-08T11:54:25.889Z,48.17
2019-02-08T11:56:53.726Z,49.10
2019-02-08T11:59:22.291Z,47.77
2019-02-08T12:01:51.425Z,46.23
2019-02-08T12:04:19.202Z,48.20
2019-02-08T12:06:46.945Z,49.60
2019-02-08T12:09:15.834Z,47.57
2019-02-08T12:11:45.006Z,47.90
2019-02-08T12:14:12.761Z,45.90
2019-02-08T12:16:40.433Z,49.47
2019-02-08T12:19:08.985Z,51.80
2019-02-08T12:21:42.790Z,47.47
2019-02-08T12:24:17.771Z,50.93
2019-02-08T12:26:46.188Z,54.23
2019-02-08T12:29:14.712Z,50.30
2019-02-08T12:31:47.329Z,53.73
2019-02-08T12:34:20.124Z,49.43
2019-02-08T12:36:48.194Z,53.40
2019-02-08T12:39:16.239Z,46.87
2019-02-08T12:41:44.532Z,48.90
2019-02-08T12:44:12.791Z,44.90
2019-02-08T12:46:43.667Z,46.90
2019-02-08T12:49:11.751Z,48.60
2019-02-08T12:51:42.943Z,48.27
2019-02-08T12:54:12.981Z,50.50
2019-02-08T12:56:46.023Z,48.23
2019-02-08T12:59:17.649Z,45.23
2019-02-08T13:01:45.831Z,45.00
2019-02-08T13:04:14.255Z,41.03
2019-02-08T13:06:42.327Z,46.60
2019-02-08T13:09:11.789Z,48.67
2019-02-08T13:11:40.811Z,45.97
2019-02-08T13:14:09.664Z,51.07
2019-02-08T13:16:38.092Z,45.63
2019-02-08T13:19:08.951Z,41.33
2019-02-08T13:21:39.401Z,45.57
2019-02-08T13:24:07.680Z,43.73
2019-02-08T13:26:40.953Z,41.23
2019-02-08T13:29:11.462Z,43.80
2019-02-08T13:31:39.655Z,42.47
2019-02-08T13:34:07.418Z,44.50
2019-02-08T13:36:35.447Z,43.90
2019-02-08T13:39:05.607Z,46.83
2019-02-08T13:41:33.668Z,45.00
2019-02-08T13:44:01.614Z,51.43
2019-02-08T13:46:29.665Z,42.67
2019-02-08T13:48:57.473Z,44.50
2019-02-08T13:51:25.458Z,45.90
2019-02-08T13:53:53.829Z,41.13
2019-02-08T13:56:21.994Z,39.10
2019-02-08T13:58:51.888Z,36.83
2019-02-08T14:01:22.539Z,36.93
2019-02-08T14:03:52.652Z,38.20
2019-02-08T14:06:20.612Z,38.50
2019-02-08T14:08:48.748Z,41.13
2019-02-08T14:11:16.671Z,40.27
2019-02-08T14:13:44.654Z,43.90
2019-02-08T14:16:22.921Z,39.30
2019-02-08T14:18:54.804Z,33.87
2019-02-08T14:21:22.806Z,35.67
2019-02-08T14:23:50.829Z,43.43
2019-02-08T14:26:18.890Z,35.67
2019-02-08T14:28:46.808Z,38.63
2019-02-08T14:31:14.821Z,37.93
2019-02-08T14:33:42.742Z,43.03
2019-02-08T14:36:10.760Z,40.33
2019-02-08T14:38:38.682Z,37.63
2019-02-08T14:41:06.748Z,39.37
2019-02-08T14:43:34.614Z,38.23
2019-02-08T14:46:02.814Z,38.23
2019-02-08T14:48:30.542Z,43.73
2019-02-08T14:50:58.566Z,39.50
2019-02-08T14:53:27.744Z,39.27
2019-02-08T14:55:55.644Z,40.13
2019-02-08T14:58:25.668Z,34.27
2019-02-08T15:01:00.528Z,39.37
2019-02-08T15:05:58.912Z,38.30
2019-02-08T15:08:26.877Z,35.03
2019-02-08T15:10:55.221Z,39.23
2019-02-08T15:13:23.645Z,35.40
2019-02-08T15:15:52.596Z,34.87
2019-02-08T15:18:20.609Z,38.87
2019-02-08T15:20:48.902Z,37.43
2019-02-08T15:23:16.854Z,38.10
2019-02-08T15:25:46.925Z,36.27
2019-02-08T15:28:15.514Z,37.90
2019-02-08T15:30:50.656Z,42.37
2019-02-08T15:33:18.832Z,40.67
2019-02-08T15:35:50.651Z,46.60
2019-02-08T15:38:19.919Z,49.97
2019-02-08T15:40:52.213Z,55.90
2019-02-08T15:43:22.321Z,46.10
2019-02-08T15:45:56.372Z,51.27
2019-02-08T15:48:25.034Z,55.07
2019-02-08T15:50:54.557Z,58.53
2019-02-08T15:53:23.877Z,53.40
2019-02-08T15:55:55.732Z,59.63
2019-02-08T15:58:25.580Z,59.60
2019-02-08T16:00:56.067Z,52.50
2019-02-08T16:03:27.028Z,54.07
2019-02-08T16:05:56.133Z,55.67
2019-02-08T16:08:25.109Z,50.37
2019-02-08T16:10:56.122Z,52.00
2019-02-08T16:13:24.753Z,50.17
2019-02-08T16:15:52.873Z,47.80
2019-02-08T16:18:21.500Z,50.10
2019-02-08T16:20:54.545Z,50.80
2019-02-08T16:24:14.839Z,48.23
2019-02-08T16:26:42.239Z,54.03
2019-02-08T16:29:13.469Z,52.33
2019-02-08T16:31:41.835Z,45.50
2019-02-08T16:34:10.960Z,50.20
2019-02-08T16:36:38.924Z,52.23
2019-02-08T16:39:09.402Z,50.80
2019-02-08T16:41:49.248Z,52.07
2019-02-08T16:44:17.980Z,48.43
2019-02-08T16:46:50.847Z,51.47
2019-02-08T16:49:21.499Z,52.70
2019-02-08T16:51:51.939Z,49.93
2019-02-08T16:54:20.195Z,48.13
2019-02-08T16:56:48.526Z,54.93
2019-02-08T16:59:16.454Z,48.27
2019-02-08T17:01:44.747Z,55.20
2019-02-08T17:04:13.660Z,49.70
2019-02-08T17:06:41.872Z,49.80
2019-02-08T17:09:15.894Z,50.53
2019-02-08T17:11:43.888Z,50.50
2019-02-08T17:14:12.782Z,48.37
2019-02-08T17:16:42.574Z,53.23
2019-02-08T17:19:10.536Z,56.37
2019-02-08T17:21:38.633Z,54.90
2019-02-08T17:24:08.136Z,53.40
2019-02-08T17:26:36.557Z,57.70
2019-02-08T17:29:04.866Z,53.33
2019-02-08T17:31:32.970Z,49.80
2019-02-08T17:34:01.160Z,60.17
2019-02-08T17:36:29.163Z,54.67
2019-02-08T17:38:57.224Z,59.03
2019-02-08T17:41:25.173Z,54.70
2019-02-08T17:43:53.420Z,54.87
2019-02-08T17:46:21.801Z,56.10
2019-02-08T17:48:50.545Z,51.13
2019-02-08T17:51:18.449Z,58.47
2019-02-08T17:53:46.743Z,56.20
2019-02-08T17:56:14.979Z,55.23
2019-02-08T17:58:43.125Z,57.67
2019-02-08T18:01:11.104Z,59.03
2019-02-08T18:03:40.729Z,57.57
2019-02-08T18:06:09.330Z,59.07
2019-02-08T18:08:37.348Z,59.10
2019-02-08T18:11:05.256Z,57.83
2019-02-08T18:13:33.237Z,57.77
2019-02-08T18:16:01.191Z,60.17
2019-02-08T18:18:29.136Z,59.27
2019-02-08T18:21:00.179Z,60.43
2019-02-08T18:23:31.149Z,65.10
2019-02-08T18:25:59.324Z,62.53
2019-02-08T18:28:27.206Z,65.83
2019-02-08T18:30:55.560Z,72.10
2019-02-08T18:33:23.818Z,62.07
2019-02-08T18:35:58.887Z,67.80
2019-02-08T18:38:27.628Z,70.40
2019-02-08T18:40:56.973Z,70.10
2019-02-08T18:43:25.135Z,71.00
2019-02-08T18:45:53.391Z,69.23
2019-02-08T18:48:49.240Z,67.40
2019-02-08T18:51:18.770Z,76.20
2019-02-08T18:57:01.039Z,77.27
2019-02-08T18:59:46.630Z,66.80
2019-02-08T19:02:15.643Z,69.00
2019-02-08T19:04:51.918Z,68.47
2019-02-08T19:07:20.305Z,69.00
2019-02-08T19:09:51.670Z,62.30
2019-02-08T19:12:22.971Z,65.70
2019-02-08T19:21:21.330Z,72.17
2019-02-08T19:26:27.058Z,78.17
2019-02-08T19:28:55.272Z,78.23
2019-02-08T19:31:46.464Z,78.70
2019-02-08T19:34:19.294Z,79.80
2019-02-08T19:36:52.264Z,80.23
2019-02-08T19:39:20.324Z,81.87
2019-02-08T19:41:49.642Z,80.23
2019-02-08T19:44:17.696Z,85.60
2019-02-08T19:46:46.169Z,87.53
2019-02-08T19:49:14.649Z,85.37
2019-02-08T19:51:48.151Z,89.47
2019-02-08T19:55:00.458Z,84.13
2019-02-08T19:57:59.549Z,91.73
2019-02-08T20:00:44.416Z,87.77
2019-02-08T20:03:14.264Z,85.70
2019-02-08T20:05:42.543Z,90.40
2019-02-08T20:08:12.214Z,86.53
2019-02-08T20:10:41.625Z,89.00
2019-02-08T20:13:09.792Z,87.17
2019-02-08T20:15:38.077Z,85.43
2019-02-08T20:18:08.687Z,86.87
2019-02-08T20:20:36.788Z,88.63
2019-02-08T20:23:05.225Z,91.63
2019-02-08T20:25:33.450Z,92.73
2019-02-08T20:28:01.655Z,90.37
2019-02-08T20:30:30.926Z,100.20
2019-02-08T20:33:00.395Z,156.93
2019-02-08T20:35:28.325Z,110.73
2019-02-08T20:37:56.224Z,114.87
2019-02-08T20:40:32.233Z,121.70
2019-02-08T20:43:00.428Z,108.53
2019-02-08T20:45:29.834Z,109.07
2019-02-08T20:48:02.403Z,118.20
2019-02-08T20:50:30.518Z,113.50
2019-02-08T20:52:58.634Z,123.73
2019-02-08T20:55:26.708Z,118.27
2019-02-08T20:57:57.724Z,125.13
2019-02-08T21:00:33.934Z,139.63
2019-02-08T21:03:02.097Z,136.07
2019-02-08T21:05:30.412Z,133.33
2019-02-08T21:07:58.599Z,142.67
2019-02-08T21:10:28.127Z,140.63
2019-02-08T21:12:57.188Z,146.40
2019-02-08T21:15:25.972Z,153.77
2019-02-08T21:17:56.758Z,137.40
2019-02-08T21:20:28.039Z,138.07
2019-02-08T21:22:55.346Z,145.97
2019-02-08T21:25:25.358Z,151.37
2019-02-08T21:27:53.788Z,154.40
2019-02-08T21:30:22.186Z,147.57
2019-02-08T21:32:50.269Z,163.77
2019-02-08T21:35:18.398Z,147.33
2019-02-08T21:37:46.530Z,148.00
2019-02-08T21:40:17.101Z,166.33
2019-02-08T21:42:46.742Z,144.70
2019-02-08T21:45:18.258Z,152.17
2019-02-08T21:47:46.548Z,150.93
2019-02-08T21:50:15.795Z,158.90
2019-02-08T21:52:43.802Z,163.00
2019-02-08T21:55:12.526Z,167.33
2019-02-08T21:57:40.666Z,162.23
2019-02-08T22:00:17.735Z,159.80
2019-02-08T22:02:45.846Z,166.37
2019-02-08T22:05:14.161Z,161.43
2019-02-08T22:07:42.486Z,152.37
2019-02-08T22:10:11.420Z,161.77
2019-02-08T22:12:39.509Z,163.17
2019-02-08T22:15:10.871Z,162.50
2019-02-08T22:17:40.940Z,178.10
2019-02-08T22:20:12.920Z,171.53
2019-02-08T22:22:41.067Z,171.90
2019-02-08T22:25:10.826Z,180.13
2019-02-08T22:27:39.120Z,156.77
2019-02-08T22:30:10.708Z,172.27
2019-02-08T22:32:38.829Z,169.90
2019-02-08T22:35:11.409Z,181.60
2019-02-08T22:37:41.451Z,190.50
2019-02-08T22:40:12.040Z,175.20
2019-02-08T22:42:41.021Z,194.67
2019-02-08T22:45:16.336Z,174.83
2019-02-08T22:47:44.374Z,186.13
2019-02-08T22:50:12.573Z,161.23
2019-02-08T22:52:40.495Z,157.80
2019-02-08T22:55:11.141Z,151.23
2019-02-08T22:57:38.972Z,154.27
2019-02-08T23:00:36.502Z,170.73
2019-02-08T23:03:05.250Z,171.13
2019-02-08T23:05:33.372Z,169.50
2019-02-08T23:08:01.402Z,167.20
2019-02-08T23:10:29.301Z,176.93
2019-02-08T23:12:57.369Z,170.17
2019-02-08T23:15:25.491Z,178.50
2019-02-08T23:17:53.360Z,175.33
2019-02-08T23:20:21.347Z,172.70
2019-02-08T23:22:49.171Z,187.90
2019-02-08T23:25:16.950Z,183.47
2019-02-08T23:27:44.898Z,179.30
2019-02-08T23:30:15.595Z,182.87
2019-02-08T23:32:43.650Z,181.90
2019-02-08T23:35:11.490Z,186.13
2019-02-08T23:37:39.474Z,179.23
2019-02-08T23:40:07.432Z,193.20
2019-02-08T23:42:35.636Z,186.93
2019-02-08T23:45:04.028Z,193.37
2019-02-08T23:47:32.242Z,194.23
2019-02-08T23:50:00.212Z,199.27
2019-02-08T23:52:28.340Z,199.23
2019-02-08T23:54:56.304Z,202.07
2019-02-08T23:57:24.287Z,195.37
2019-02-08T23:59:52.262Z,203.40
